This is the latest recevied weather packets stored in our database for station/object WA4OPQ-3. If no packets are shown the sender has not sent any weather packets the latest 10 day(s).
| Time | Temp. | Humidity | Pressure | Rain* | Wind** | Luminosity | Snow |
|---|---|---|---|---|---|---|---|
| 1777220422 | 26.67° C | 57% | 1012.8 hPa | 0 mm | - | 858 W/m² | - |
| 1777219818 | 26.11° C | 57% | 1013 hPa | 0 mm | - | 784 W/m² | - |
| 1777219213 | 25.56° C | 62% | 1012.8 hPa | 0 mm | - | 774 W/m² | - |
| 1777218611 | 25° C | 63% | 1012.8 hPa | 0 mm | - | 761 W/m² | - |
| 1777218003 | 25.56° C | 62% | 1012.9 hPa | 0 mm | - | 791 W/m² | - |
| 1777217401 | 25.56° C | 63% | 1012.9 hPa | 0 mm | - | 719 W/m² | - |
| 1777216796 | 25° C | 66% | 1012.8 hPa | 0 mm | - | 792 W/m² | - |
| 1777216192 | 25° C | 66% | 1012.8 hPa | 0 mm | - | 786 W/m² | - |
| 1777215583 | 23.89° C | 69% | 1013 hPa | 0 mm | - | 749 W/m² | - |
| 1777214979 | 24.44° C | 70% | 1012.9 hPa | 0 mm | - | 673 W/m² | - |
| 1777214376 | 23.89° C | 72% | 1012.8 hPa | 0 mm | - | 629 W/m² | - |
| 1777213771 | 23.33° C | 75% | 1012.8 hPa | 0 mm | - | 575 W/m² | - |
| 1777213163 | 22.22° C | 77% | 1012.7 hPa | 0 mm | - | 535 W/m² | - |
| 1777212558 | 21.67° C | 78% | 1012.9 hPa | 0 mm | - | 518 W/m² | - |
| 1777211954 | 18.89° C | 93% | 1013 hPa | 0 mm | - | 445 W/m² | - |
| 1777211348 | 17.78° C | 99% | 1012.9 hPa | 0 mm | - | 393 W/m² | - |
| 1777210742 | 16.67° C | 99% | 1012.9 hPa | 0 mm | - | 442 W/m² | - |
| 1777210137 | 16.11° C | 99% | 1012.8 hPa | 0 mm | - | 912 W/m² | - |
| 1777209532 | 15.56° C | 99% | 1012.7 hPa | 0 mm | - | 880 W/m² | - |
| 1777208928 | 14.44° C | 99% | 1012.6 hPa | 0 mm | - | 772 W/m² | - |
| 1777208322 | 13.33° C | 99% | 1012.3 hPa | 0 mm | - | 164 W/m² | - |
| 1777207718 | 13.33° C | 99% | 1012.2 hPa | 0 mm | - | 48 W/m² | - |
| 1777207113 | 13.33° C | 99% | 1011.8 hPa | 0 mm | - | 47 W/m² | - |
| 1777206508 | 12.78° C | 99% | 1011.9 hPa | 0 mm | - | 59 W/m² | - |
| 1777205902 | 12.78° C | 99% | 1011.9 hPa | 0 mm | - | 62 W/m² | - |
* Rain latest hour (hover to see other rain measurements)
** Current wind speed in m/s (hover to see current wind gust speed)